createdAt,value
2023-04-06T00:00:35.393Z,2.32
2023-04-06T00:03:05.617Z,2.30
2023-04-06T00:05:32.435Z,2.36
2023-04-06T00:07:59.402Z,2.39
2023-04-06T00:10:26.404Z,2.43
2023-04-06T00:12:53.767Z,2.39
2023-04-06T00:15:21.231Z,2.41
2023-04-06T00:17:47.799Z,2.44
2023-04-06T00:20:14.641Z,2.53
2023-04-06T00:22:41.521Z,2.61
2023-04-06T00:25:08.505Z,2.63
2023-04-06T00:27:35.064Z,2.58
2023-04-06T00:30:01.686Z,2.57
2023-04-06T00:32:28.806Z,2.53
2023-04-06T00:34:57.591Z,2.57
2023-04-06T00:37:24.155Z,2.63
2023-04-06T00:39:53.390Z,2.54
2023-04-06T00:42:30.496Z,2.57
2023-04-06T00:44:59.535Z,2.52
2023-04-06T00:47:27.002Z,2.49
2023-04-06T00:49:54.917Z,2.41
2023-04-06T00:52:21.851Z,2.23
2023-04-06T00:54:48.466Z,2.29
2023-04-06T00:57:19.059Z,2.26
2023-04-06T00:59:45.721Z,2.36
2023-04-06T01:02:19.432Z,2.42
2023-04-06T01:04:46.208Z,2.47
2023-04-06T01:07:12.703Z,2.47
2023-04-06T01:09:42.068Z,2.47
2023-04-06T01:12:08.739Z,2.51
2023-04-06T01:14:35.689Z,2.51
2023-04-06T01:17:08.177Z,2.50
2023-04-06T01:19:35.409Z,2.49
2023-04-06T01:22:07.324Z,2.46
2023-04-06T01:24:40.251Z,2.53
2023-04-06T01:27:06.781Z,2.53
2023-04-06T01:29:33.405Z,2.62
2023-04-06T01:31:59.959Z,2.66
2023-04-06T01:34:27.122Z,2.67
2023-04-06T01:36:53.627Z,2.63
2023-04-06T01:39:20.728Z,2.67
2023-04-06T01:41:50.161Z,2.69
2023-04-06T01:44:20.473Z,2.72
2023-04-06T01:46:47.067Z,2.75
2023-04-06T01:49:14.075Z,2.74
2023-04-06T01:51:41.021Z,2.72
2023-04-06T01:54:07.581Z,2.71
2023-04-06T01:56:34.255Z,2.71
2023-04-06T01:59:00.855Z,2.75
2023-04-06T02:01:27.483Z,2.70
2023-04-06T02:03:54.144Z,2.65
2023-04-06T02:06:20.863Z,2.72
2023-04-06T02:08:47.337Z,2.69
2023-04-06T02:11:13.922Z,2.71
2023-04-06T02:13:40.647Z,2.76
2023-04-06T02:16:07.546Z,2.68
2023-04-06T02:18:34.170Z,2.28
2023-04-06T02:21:01.648Z,1.99
2023-04-06T02:23:28.216Z,1.98
2023-04-06T02:25:54.764Z,1.96
2023-04-06T02:28:21.257Z,1.90
2023-04-06T02:30:47.838Z,1.92
2023-04-06T02:33:14.363Z,1.89
2023-04-06T02:35:40.987Z,1.84
2023-04-06T02:38:07.582Z,1.83
2023-04-06T02:40:34.122Z,1.65
2023-04-06T02:43:00.972Z,1.54
2023-04-06T02:45:27.489Z,1.53
2023-04-06T02:47:54.017Z,1.52
2023-04-06T02:50:20.627Z,1.54
2023-04-06T02:52:47.193Z,1.54
2023-04-06T02:55:13.740Z,1.57
2023-04-06T02:57:40.338Z,1.60
2023-04-06T03:00:07.774Z,1.58
2023-04-06T03:02:34.402Z,1.60
2023-04-06T03:05:01.032Z,1.72
2023-04-06T03:07:27.565Z,1.74
2023-04-06T03:09:54.059Z,1.71
2023-04-06T03:12:20.900Z,1.60
2023-04-06T03:14:47.411Z,1.50
2023-04-06T03:17:14.041Z,1.34
2023-04-06T03:19:40.608Z,1.39
2023-04-06T03:22:07.125Z,1.40
2023-04-06T03:24:33.912Z,1.40
2023-04-06T03:27:01.412Z,1.38
2023-04-06T03:29:28.162Z,1.33
2023-04-06T03:31:54.839Z,1.23
2023-04-06T03:34:21.550Z,1.16
2023-04-06T03:36:51.662Z,1.12
2023-04-06T03:39:26.546Z,1.14
2023-04-06T03:41:53.195Z,1.17
2023-04-06T03:44:19.753Z,1.06
2023-04-06T03:46:49.379Z,1.18
2023-04-06T03:49:16.097Z,1.19
2023-04-06T03:51:42.622Z,1.16
2023-04-06T03:54:09.144Z,1.11
2023-04-06T03:56:35.752Z,1.23
2023-04-06T03:59:02.993Z,1.28
2023-04-06T04:01:29.929Z,1.29
2023-04-06T04:03:56.742Z,1.29
2023-04-06T04:06:23.395Z,1.24
2023-04-06T04:08:51.122Z,1.24
2023-04-06T04:11:17.888Z,1.21
2023-04-06T04:13:44.838Z,1.22
2023-04-06T04:16:11.396Z,1.22
2023-04-06T04:18:38.014Z,1.21
2023-04-06T04:21:04.682Z,1.04
2023-04-06T04:23:31.222Z,0.90
2023-04-06T04:25:58.637Z,0.97
2023-04-06T04:28:25.393Z,0.95
2023-04-06T04:30:51.917Z,0.91
2023-04-06T04:33:18.466Z,0.83
2023-04-06T04:35:45.028Z,0.92
2023-04-06T04:38:11.618Z,1.03
2023-04-06T04:40:38.261Z,1.01
2023-04-06T04:43:04.803Z,1.06
2023-04-06T04:45:31.410Z,0.94
2023-04-06T04:47:58.017Z,0.95
2023-04-06T04:50:24.613Z,0.93
2023-04-06T04:52:51.838Z,1.05
2023-04-06T04:55:18.670Z,1.08
2023-04-06T04:57:47.161Z,1.03
2023-04-06T05:00:14.155Z,1.09
2023-04-06T05:02:41.013Z,1.16
2023-04-06T05:05:08.392Z,1.18
2023-04-06T05:07:35.047Z,1.16
2023-04-06T05:10:01.637Z,1.14
2023-04-06T05:12:31.269Z,1.21
2023-04-06T05:14:57.941Z,1.26
2023-04-06T05:17:24.525Z,1.30
2023-04-06T05:19:51.235Z,1.35
2023-04-06T05:22:18.642Z,1.47
2023-04-06T05:24:45.573Z,1.60
2023-04-06T05:27:12.142Z,1.70
2023-04-06T05:29:38.711Z,1.82
2023-04-06T05:32:05.961Z,2.05
2023-04-06T05:34:32.530Z,2.26
2023-04-06T05:36:59.072Z,2.50
2023-04-06T05:39:25.769Z,2.60
2023-04-06T05:41:52.275Z,2.59
2023-04-06T05:44:21.562Z,2.68
2023-04-06T05:46:48.143Z,2.64
2023-04-06T05:49:14.768Z,2.77
2023-04-06T05:51:41.327Z,2.97
2023-04-06T05:54:07.954Z,2.91
2023-04-06T05:56:34.446Z,2.89
2023-04-06T05:59:01.182Z,2.94
2023-04-06T06:01:27.689Z,3.04
2023-04-06T06:03:54.229Z,2.98
2023-04-06T06:06:20.752Z,3.10
2023-04-06T06:08:47.283Z,3.20
2023-04-06T06:11:13.806Z,3.30
2023-04-06T06:13:40.459Z,3.41
2023-04-06T06:16:07.319Z,3.55
2023-04-06T06:18:33.905Z,3.68
2023-04-06T06:21:01.182Z,3.76
2023-04-06T06:23:30.339Z,3.83
2023-04-06T06:25:59.117Z,3.89
2023-04-06T06:28:26.359Z,3.95
2023-04-06T06:30:53.112Z,3.99
2023-04-06T06:33:22.543Z,4.05
2023-04-06T06:35:49.389Z,4.13
2023-04-06T06:38:15.972Z,4.22
2023-04-06T06:40:42.588Z,4.31
2023-04-06T06:43:09.096Z,4.34
2023-04-06T06:45:35.993Z,4.40
2023-04-06T06:48:02.662Z,4.44
2023-04-06T06:50:29.744Z,4.48
2023-04-06T06:52:56.381Z,4.60
2023-04-06T06:55:22.998Z,4.72
2023-04-06T06:57:49.548Z,4.82
2023-04-06T07:00:16.366Z,4.87
2023-04-06T07:02:43.052Z,4.91
2023-04-06T07:05:23.823Z,4.99
2023-04-06T07:07:54.203Z,5.06
2023-04-06T07:10:21.312Z,5.13
2023-04-06T07:12:47.885Z,5.13
2023-04-06T07:15:14.581Z,5.17
2023-04-06T07:17:46.189Z,5.25
2023-04-06T07:20:13.675Z,5.46
2023-04-06T07:22:41.505Z,5.48
2023-04-06T07:25:08.525Z,5.63
2023-04-06T07:27:37.743Z,5.72
2023-04-06T07:30:04.522Z,5.84
2023-04-06T07:32:31.615Z,6.00
2023-04-06T07:34:59.192Z,5.99
2023-04-06T07:37:26.122Z,6.00
2023-04-06T07:39:52.640Z,6.05
2023-04-06T07:42:19.168Z,6.24
2023-04-06T07:44:49.359Z,6.17
2023-04-06T07:47:16.086Z,6.18
2023-04-06T07:49:42.615Z,6.26
2023-04-06T07:52:09.096Z,6.38
2023-04-06T07:54:35.636Z,6.57
2023-04-06T07:57:02.134Z,6.85
2023-04-06T07:59:28.726Z,7.01
2023-04-06T08:01:55.466Z,7.32
2023-04-06T08:04:22.008Z,7.45
2023-04-06T08:06:48.548Z,7.56
2023-04-06T08:09:15.114Z,7.67
2023-04-06T08:11:41.634Z,7.75
2023-04-06T08:14:08.785Z,8.00
2023-04-06T08:16:35.647Z,8.12
2023-04-06T08:19:02.239Z,8.18
2023-04-06T08:21:28.734Z,8.08
2023-04-06T08:23:55.299Z,8.08
2023-04-06T08:26:21.927Z,8.14
2023-04-06T08:28:48.529Z,8.33
2023-04-06T08:31:15.098Z,8.45
2023-04-06T08:33:41.779Z,8.57
2023-04-06T08:36:13.405Z,8.73
2023-04-06T08:38:41.086Z,8.81
2023-04-06T08:41:09.598Z,8.87
2023-04-06T08:43:48.239Z,8.97
2023-04-06T08:46:21.174Z,9.15
2023-04-06T08:48:50.910Z,9.12
2023-04-06T08:51:19.660Z,9.18
2023-04-06T08:53:47.344Z,9.33
2023-04-06T08:56:14.097Z,9.54
2023-04-06T08:58:41.523Z,9.64
2023-04-06T09:01:10.339Z,9.78
2023-04-06T09:03:41.906Z,9.96
2023-04-06T09:06:10.435Z,10.37
2023-04-06T09:08:41.779Z,10.59
2023-04-06T09:11:09.702Z,10.56
2023-04-06T09:14:08.678Z,10.53
2023-04-06T09:16:46.556Z,10.62
2023-04-06T09:19:13.629Z,10.99
2023-04-06T09:21:41.096Z,11.20
2023-04-06T09:24:09.047Z,11.17
2023-04-06T09:26:47.056Z,11.28
2023-04-06T09:29:25.272Z,11.24
2023-04-06T09:31:51.867Z,11.12
2023-04-06T09:34:23.371Z,11.26
2023-04-06T09:36:49.894Z,11.32
2023-04-06T09:39:16.392Z,11.57
2023-04-06T09:41:42.904Z,11.51
2023-04-06T09:44:15.428Z,11.53
2023-04-06T09:46:59.598Z,11.48
2023-04-06T09:49:32.401Z,11.54
2023-04-06T09:52:05.556Z,11.63
2023-04-06T09:54:33.163Z,11.65
2023-04-06T09:57:40.745Z,11.70
2023-04-06T10:00:15.515Z,11.69
2023-04-06T10:02:57.512Z,11.65
2023-04-06T10:05:30.722Z,11.65
2023-04-06T10:08:02.054Z,11.79
2023-04-06T10:10:29.429Z,11.83
2023-04-06T10:12:56.851Z,12.01
2023-04-06T10:15:23.525Z,12.03
2023-04-06T10:17:50.315Z,12.09
2023-04-06T10:20:41.023Z,12.12
2023-04-06T10:23:10.978Z,12.04
2023-04-06T10:25:38.749Z,12.00
2023-04-06T10:28:09.947Z,11.89
2023-04-06T10:30:44.647Z,11.89
2023-04-06T10:33:19.232Z,11.96
2023-04-06T10:35:46.028Z,12.29
2023-04-06T10:38:15.028Z,12.33
2023-04-06T10:40:48.038Z,12.48
2023-04-06T10:43:24.289Z,12.44
2023-04-06T10:45:58.509Z,12.30
2023-04-06T10:48:26.433Z,12.33
2023-04-06T10:50:53.960Z,12.31
2023-04-06T10:53:25.363Z,12.28
2023-04-06T10:55:53.316Z,12.32
2023-04-06T10:58:20.326Z,12.35
2023-04-06T11:00:51.425Z,12.31
2023-04-06T11:03:19.172Z,12.46
2023-04-06T11:05:48.191Z,12.42
2023-04-06T11:08:34.350Z,12.64
2023-04-06T11:11:07.493Z,12.73
2023-04-06T11:13:45.124Z,12.59
2023-04-06T11:16:18.517Z,12.53
2023-04-06T11:18:49.921Z,12.50
2023-04-06T11:21:16.525Z,12.51
2023-04-06T11:23:43.023Z,12.56
2023-04-06T11:26:14.930Z,12.59
2023-04-06T11:28:44.110Z,12.57
2023-04-06T11:31:12.496Z,12.80
2023-04-06T11:33:39.756Z,12.93
2023-04-06T11:36:07.274Z,12.76
2023-04-06T11:38:34.536Z,12.69
2023-04-06T11:41:02.491Z,12.69
2023-04-06T11:43:32.367Z,12.51
2023-04-06T11:46:06.241Z,12.49
2023-04-06T11:48:32.912Z,12.54
2023-04-06T11:51:02.060Z,12.68
2023-04-06T11:53:29.983Z,12.51
2023-04-06T11:55:57.258Z,12.39
2023-04-06T11:58:23.871Z,12.55
2023-04-06T12:00:50.468Z,12.81
2023-04-06T12:03:17.162Z,12.84
2023-04-06T12:05:44.923Z,12.91
2023-04-06T12:08:11.517Z,12.89
2023-04-06T12:10:38.062Z,12.88
2023-04-06T12:13:05.533Z,13.00
2023-04-06T12:15:32.211Z,12.85
2023-04-06T12:17:58.784Z,12.79
2023-04-06T12:20:27.201Z,12.93
2023-04-06T12:22:54.337Z,12.92
2023-04-06T12:25:21.011Z,12.86
2023-04-06T12:27:48.101Z,12.92
2023-04-06T12:30:15.314Z,12.89
2023-04-06T12:32:42.283Z,12.88
2023-04-06T12:35:10.195Z,12.78
2023-04-06T12:37:37.781Z,12.63
2023-04-06T12:40:05.209Z,12.66
2023-04-06T12:42:31.893Z,12.51
2023-04-06T12:44:58.405Z,12.63
2023-04-06T12:47:27.273Z,12.63
2023-04-06T12:49:55.007Z,12.73
2023-04-06T12:52:21.732Z,12.63
2023-04-06T12:54:50.142Z,12.57
2023-04-06T12:57:18.128Z,12.55
2023-04-06T12:59:45.738Z,12.56
2023-04-06T13:02:12.664Z,12.54
2023-04-06T13:04:39.290Z,12.53
2023-04-06T13:07:06.090Z,12.39
2023-04-06T13:09:32.615Z,12.27
2023-04-06T13:11:59.111Z,12.20
2023-04-06T13:14:26.168Z,12.21
2023-04-06T13:16:52.881Z,12.21
2023-04-06T13:19:19.536Z,12.20
2023-04-06T13:21:46.375Z,12.14
2023-04-06T13:24:13.731Z,12.04
2023-04-06T13:26:41.106Z,12.05
2023-04-06T13:29:07.652Z,11.97
2023-04-06T13:31:34.258Z,11.96
2023-04-06T13:34:00.842Z,12.01
2023-04-06T13:36:27.972Z,11.98
2023-04-06T13:38:56.242Z,11.93
2023-04-06T13:41:24.528Z,11.90
2023-04-06T13:43:54.452Z,11.86
2023-04-06T13:46:21.337Z,11.83
2023-04-06T13:48:48.166Z,11.84
2023-04-06T13:51:15.961Z,11.84
2023-04-06T13:53:42.438Z,11.96
2023-04-06T13:56:11.824Z,11.87
2023-04-06T13:58:38.319Z,11.79
2023-04-06T14:01:07.322Z,11.72
2023-04-06T14:03:34.771Z,11.64
2023-04-06T14:06:05.041Z,11.68
2023-04-06T14:08:36.029Z,11.79
2023-04-06T14:11:02.530Z,11.71
2023-04-06T14:13:29.032Z,11.69
2023-04-06T14:15:56.485Z,11.64
2023-04-06T14:18:25.829Z,11.58
2023-04-06T14:20:56.967Z,11.58
2023-04-06T14:23:23.592Z,11.62
2023-04-06T14:25:50.054Z,11.53
2023-04-06T14:28:17.365Z,11.62
2023-04-06T14:30:44.639Z,11.67
2023-04-06T14:33:12.213Z,11.72
2023-04-06T14:35:41.494Z,11.62
2023-04-06T14:38:07.985Z,11.57
2023-04-06T14:40:37.097Z,11.63
2023-04-06T14:43:04.358Z,11.63
2023-04-06T14:45:33.722Z,11.62
2023-04-06T14:48:00.218Z,11.66
2023-04-06T14:50:26.731Z,11.59
2023-04-06T14:52:56.232Z,11.54
2023-04-06T14:55:22.768Z,11.48
2023-04-06T14:57:49.245Z,11.37
2023-04-06T15:00:16.287Z,11.34
2023-04-06T15:02:44.195Z,11.39
2023-04-06T15:05:11.921Z,11.52
2023-04-06T15:07:38.387Z,11.41
2023-04-06T15:10:10.785Z,11.38
2023-04-06T15:12:39.123Z,11.45
2023-04-06T15:15:06.267Z,11.56
2023-04-06T15:17:32.873Z,11.55
2023-04-06T15:19:59.385Z,11.51
2023-04-06T15:22:25.948Z,11.44
2023-04-06T15:24:52.423Z,11.40
2023-04-06T15:27:18.969Z,11.44
2023-04-06T15:29:45.691Z,11.32
2023-04-06T15:32:12.439Z,11.27
2023-04-06T15:34:38.895Z,11.32
2023-04-06T15:37:06.147Z,11.27
2023-04-06T15:39:33.303Z,11.20
2023-04-06T15:42:00.258Z,11.29
2023-04-06T15:44:27.075Z,11.34
2023-04-06T15:46:53.904Z,11.29
2023-04-06T15:49:20.839Z,11.29
2023-04-06T15:51:48.843Z,11.26
2023-04-06T15:54:21.077Z,11.26
2023-04-06T15:56:49.630Z,11.18
2023-04-06T15:59:16.826Z,11.10
2023-04-06T16:01:43.647Z,11.08
2023-04-06T16:04:11.679Z,11.08
2023-04-06T16:06:38.315Z,11.13
2023-04-06T16:09:04.815Z,11.11
2023-04-06T16:11:32.575Z,11.11
2023-04-06T16:13:59.589Z,11.13
2023-04-06T16:16:27.185Z,11.13
2023-04-06T16:18:53.846Z,11.07
2023-04-06T16:21:20.375Z,11.09
2023-04-06T16:23:50.839Z,11.09
2023-04-06T16:26:18.113Z,11.11
2023-04-06T16:28:45.057Z,11.11
2023-04-06T16:31:22.104Z,11.07
2023-04-06T16:33:56.267Z,11.01
2023-04-06T16:36:27.539Z,11.01
2023-04-06T16:38:58.506Z,11.02
2023-04-06T16:41:26.556Z,10.97
2023-04-06T16:43:53.887Z,10.95
2023-04-06T16:46:23.624Z,10.94
2023-04-06T16:48:50.115Z,10.92
2023-04-06T16:51:16.713Z,10.88
2023-04-06T16:53:43.263Z,10.87
2023-04-06T16:58:41.230Z,10.81
2023-04-06T17:01:07.808Z,10.82
2023-04-06T17:03:35.266Z,10.75
2023-04-06T17:06:01.920Z,10.71
2023-04-06T17:08:28.458Z,10.65
2023-04-06T17:11:02.654Z,10.60
2023-04-06T17:13:30.325Z,10.56
2023-04-06T17:15:56.798Z,10.49
2023-04-06T17:18:23.274Z,10.42
2023-04-06T17:20:49.720Z,10.35
2023-04-06T17:23:16.689Z,10.26
2023-04-06T17:25:43.163Z,10.17
2023-04-06T17:28:09.831Z,10.14
2023-04-06T17:30:36.334Z,10.01
2023-04-06T17:33:02.969Z,9.95
2023-04-06T17:35:29.474Z,9.88
2023-04-06T17:37:56.255Z,9.84
2023-04-06T17:40:22.730Z,9.77
2023-04-06T17:42:49.191Z,9.67
2023-04-06T17:45:15.974Z,9.62
2023-04-06T17:47:42.464Z,9.63
2023-04-06T17:50:12.561Z,9.64
2023-04-06T17:52:39.042Z,9.62
2023-04-06T17:55:05.924Z,9.60
2023-04-06T17:57:33.563Z,9.60
2023-04-06T18:00:00.054Z,9.60
2023-04-06T18:02:26.714Z,9.57
2023-04-06T18:04:53.695Z,9.53
2023-04-06T18:07:20.212Z,9.52
2023-04-06T18:09:47.358Z,9.47
2023-04-06T18:12:13.878Z,9.45
2023-04-06T18:14:41.425Z,9.46
2023-04-06T18:17:08.159Z,9.47
2023-04-06T18:19:34.702Z,9.44
2023-04-06T18:22:01.258Z,9.44
2023-04-06T18:24:41.310Z,9.43
2023-04-06T18:27:10.376Z,9.38
2023-04-06T18:29:37.198Z,9.35
2023-04-06T18:32:04.232Z,9.31
2023-04-06T18:34:30.756Z,9.27
2023-04-06T18:36:57.536Z,9.28
2023-04-06T18:39:24.009Z,9.28
2023-04-06T18:41:50.486Z,9.29
2023-04-06T18:44:16.968Z,9.25
2023-04-06T18:46:47.344Z,9.21
2023-04-06T18:49:13.861Z,9.18
2023-04-06T18:51:42.855Z,9.19
2023-04-06T18:54:09.367Z,9.19
2023-04-06T18:56:37.136Z,9.18
2023-04-06T18:59:03.836Z,9.19
2023-04-06T19:01:31.769Z,9.17
2023-04-06T19:03:59.811Z,9.16
2023-04-06T19:06:27.476Z,9.13
2023-04-06T19:08:54.116Z,9.11
2023-04-06T19:11:23.258Z,9.12
2023-04-06T19:13:53.161Z,9.10
2023-04-06T19:16:19.700Z,9.11
2023-04-06T19:18:46.248Z,9.09
2023-04-06T19:21:16.953Z,9.09
2023-04-06T19:23:45.338Z,9.05
2023-04-06T19:26:12.975Z,9.06
2023-04-06T19:28:39.901Z,9.03
2023-04-06T19:31:08.696Z,9.05
2023-04-06T19:33:36.040Z,9.02
2023-04-06T19:36:03.018Z,8.98
2023-04-06T19:38:30.268Z,8.97
2023-04-06T19:40:56.914Z,8.96
2023-04-06T19:43:23.370Z,8.93
2023-04-06T19:45:49.939Z,8.94
2023-04-06T19:48:16.418Z,8.92
2023-04-06T19:50:46.465Z,8.90
2023-04-06T19:53:13.293Z,8.86
2023-04-06T19:55:40.163Z,8.82
2023-04-06T19:58:06.982Z,8.79
2023-04-06T20:00:33.657Z,8.76
2023-04-06T20:03:00.378Z,8.69
2023-04-06T20:05:26.979Z,8.63
2023-04-06T20:07:53.537Z,8.55
2023-04-06T20:10:19.998Z,8.49
2023-04-06T20:12:46.767Z,8.45
2023-04-06T20:15:13.580Z,8.50
2023-04-06T20:17:40.220Z,8.53
2023-04-06T20:20:07.271Z,8.52
2023-04-06T20:22:33.810Z,8.45
2023-04-06T20:25:00.329Z,8.36
2023-04-06T20:27:30.357Z,8.31
2023-04-06T20:29:56.856Z,8.28
2023-04-06T20:32:23.662Z,8.17
2023-04-06T20:34:50.667Z,7.98
2023-04-06T20:37:17.687Z,7.89
2023-04-06T20:39:48.343Z,7.80
2023-04-06T20:42:14.841Z,7.68
2023-04-06T20:44:41.655Z,7.58
2023-04-06T20:47:08.141Z,7.56
2023-04-06T20:49:34.637Z,7.51
2023-04-06T20:52:02.910Z,7.50
2023-04-06T20:54:29.674Z,7.47
2023-04-06T20:57:00.413Z,7.37
2023-04-06T20:59:27.881Z,7.35
2023-04-06T21:01:54.581Z,7.29
2023-04-06T21:04:22.486Z,7.27
2023-04-06T21:06:49.806Z,7.14
2023-04-06T21:09:16.790Z,7.20
2023-04-06T21:11:43.338Z,7.28
2023-04-06T21:14:09.806Z,7.26
2023-04-06T21:16:36.683Z,7.17
2023-04-06T21:19:03.449Z,7.15
2023-04-06T21:21:30.188Z,7.02
2023-04-06T21:23:58.338Z,6.93
2023-04-06T21:26:24.852Z,6.87
2023-04-06T21:28:51.377Z,6.76
2023-04-06T21:31:19.784Z,6.64
2023-04-06T21:33:46.842Z,6.53
2023-04-06T21:36:16.428Z,6.57
2023-04-06T21:38:43.002Z,6.49
2023-04-06T21:41:09.472Z,6.48
2023-04-06T21:43:36.015Z,6.39
2023-04-06T21:46:02.895Z,6.48
2023-04-06T21:48:29.381Z,6.57
2023-04-06T21:50:55.928Z,6.63
2023-04-06T21:53:22.379Z,6.57
2023-04-06T21:55:49.215Z,6.53
2023-04-06T21:58:15.978Z,6.31
2023-04-06T22:00:42.727Z,6.27
2023-04-06T22:03:09.652Z,6.38
2023-04-06T22:05:38.290Z,6.42
2023-04-06T22:08:04.903Z,6.40
2023-04-06T22:10:34.339Z,6.20
2023-04-06T22:13:00.886Z,6.12
2023-04-06T22:15:27.361Z,6.11
2023-04-06T22:17:53.941Z,6.05
2023-04-06T22:20:24.845Z,5.88
2023-04-06T22:23:00.822Z,5.99
2023-04-06T22:25:27.399Z,5.98
2023-04-06T22:27:53.893Z,5.93
2023-04-06T22:30:23.362Z,5.99
2023-04-06T22:32:49.863Z,5.91
2023-04-06T22:35:16.435Z,5.90
2023-04-06T22:37:43.412Z,5.72
2023-04-06T22:40:13.762Z,5.70
2023-04-06T22:42:42.129Z,5.82
2023-04-06T22:45:11.955Z,5.76
2023-04-06T22:47:39.805Z,5.86
2023-04-06T22:50:10.225Z,5.94
2023-04-06T22:52:36.932Z,5.83
2023-04-06T22:55:03.505Z,5.95
2023-04-06T22:57:33.269Z,5.94
2023-04-06T23:00:00.559Z,6.00
2023-04-06T23:02:31.628Z,5.87
2023-04-06T23:05:02.202Z,5.76
2023-04-06T23:07:32.812Z,5.82
2023-04-06T23:10:02.144Z,6.10
2023-04-06T23:12:37.031Z,6.21
2023-04-06T23:15:03.738Z,6.27
2023-04-06T23:17:30.410Z,6.31
2023-04-06T23:19:56.943Z,6.30
2023-04-06T23:22:23.466Z,6.26
2023-04-06T23:24:50.118Z,6.22
2023-04-06T23:27:16.597Z,6.20
2023-04-06T23:29:45.958Z,6.19
2023-04-06T23:32:12.514Z,6.05
2023-04-06T23:34:39.042Z,5.57
2023-04-06T23:37:05.752Z,5.26
2023-04-06T23:39:32.266Z,5.19
2023-04-06T23:41:59.315Z,5.13
2023-04-06T23:44:32.502Z,4.97
2023-04-06T23:46:59.037Z,4.78
2023-04-06T23:49:26.440Z,4.69
2023-04-06T23:51:52.890Z,4.72
2023-04-06T23:54:22.445Z,4.76
2023-04-06T23:56:50.577Z,4.82
2023-04-06T23:59:17.119Z,4.85
